Time;durP1;ratioP1;P1;durP2;ratioP2;P2;SDS_P1;SDS_P2;PMS_P1;PMS_P2;Temp;Humidity;BMP_temperature;BMP_pressure;BME280_temperature;BME280_humidity;BME280_pressure;Samples;Min_cycle;Max_cycle;Signal;HPM_P1;HPM_P2
2021/10/29 00:00:52;;;;;;;8.95;7.20;;;;;;;;;;5034556;28;20203;-45
2021/10/29 00:03:18;;;;;;;10.68;6.88;;;;;;;;;;5034206;28;20278;-45
2021/10/29 00:05:44;;;;;;;8.73;6.30;;;;;;;;;;5034312;28;20539;-45
2021/10/29 00:08:11;;;;;;;8.60;6.18;;;;;;;;;;5033502;28;20184;-45
2021/10/29 00:10:37;;;;;;;6.60;5.53;;;;;;;;;;5034821;28;20189;-45
2021/10/29 00:13:03;;;;;;;6.78;5.90;;;;;;;;;;5033864;28;20453;-45
2021/10/29 00:15:29;;;;;;;7.25;6.13;;;;;;;;;;5034723;28;20187;-46
2021/10/29 00:17:55;;;;;;;7.53;5.88;;;;;;;;;;5034614;28;20562;-45
2021/10/29 00:20:22;;;;;;;8.43;5.72;;;;;;;;;;5034412;28;20217;-45
2021/10/29 00:22:48;;;;;;;7.82;6.20;;;;;;;;;;5034822;28;20168;-45
2021/10/29 00:25:14;;;;;;;6.88;5.60;;;;;;;;;;5031700;28;20176;-45
2021/10/29 00:27:40;;;;;;;7.15;5.68;;;;;;;;;;5034178;28;20210;-45
2021/10/29 00:30:06;;;;;;;6.85;5.50;;;;;;;;;;5034250;28;20175;-45
2021/10/29 00:32:33;;;;;;;7.72;5.82;;;;;;;;;;5034030;28;20175;-45
2021/10/29 00:34:59;;;;;;;6.05;5.30;;;;;;;;;;5034250;28;20194;-45
2021/10/29 00:37:25;;;;;;;7.32;6.15;;;;;;;;;;5034419;28;20184;-45
2021/10/29 00:39:51;;;;;;;7.18;5.45;;;;;;;;;;5033100;28;20820;-45
2021/10/29 00:42:17;;;;;;;8.35;5.82;;;;;;;;;;5018327;28;20176;-45
2021/10/29 00:44:43;;;;;;;6.43;5.72;;;;;;;;;;5033980;28;20559;-45
2021/10/29 00:47:09;;;;;;;7.38;5.28;;;;;;;;;;5032602;28;20211;-45
2021/10/29 00:49:35;;;;;;;5.80;4.95;;;;;;;;;;5034072;28;20191;-45
2021/10/29 00:52:02;;;;;;;5.47;4.93;;;;;;;;;;5034105;28;20176;-45
2021/10/29 00:54:28;;;;;;;5.95;5.28;;;;;;;;;;5033565;28;20178;-45
2021/10/29 00:56:54;;;;;;;6.68;5.30;;;;;;;;;;5032593;28;20175;-46
2021/10/29 00:59:20;;;;;;;6.22;5.05;;;;;;;;;;5033942;28;20563;-45
2021/10/29 01:01:47;;;;;;;5.90;5.28;;;;;;;;;;5033414;28;20195;-45
2021/10/29 01:04:14;;;;;;;8.63;5.38;;;;;;;;;;5033586;28;20188;-45
2021/10/29 01:06:40;;;;;;;5.63;4.85;;;;;;;;;;5035443;28;20203;-45
2021/10/29 01:09:06;;;;;;;5.68;4.90;;;;;;;;;;5038097;28;20180;-45
2021/10/29 01:11:32;;;;;;;8.13;5.07;;;;;;;;;;5037752;28;20210;-45
2021/10/29 01:13:58;;;;;;;8.45;4.90;;;;;;;;;;5035876;28;20195;-45
2021/10/29 01:16:24;;;;;;;10.07;5.05;;;;;;;;;;5037110;28;21458;-45
2021/10/29 01:18:50;;;;;;;6.20;5.18;;;;;;;;;;5037841;28;20176;-45
2021/10/29 01:21:17;;;;;;;5.82;4.60;;;;;;;;;;5037546;28;20195;-45
2021/10/29 01:23:43;;;;;;;5.45;4.65;;;;;;;;;;5037348;28;20171;-45
2021/10/29 01:26:12;;;;;;;5.18;4.68;;;;;;;;;;5036346;28;20480;-45
2021/10/29 01:28:38;;;;;;;5.70;4.70;;;;;;;;;;5037677;28;20188;-45
2021/10/29 01:31:04;;;;;;;5.78;5.00;;;;;;;;;;5036916;28;20542;-45
2021/10/29 01:33:31;;;;;;;7.07;4.60;;;;;;;;;;5036876;28;20543;-45
2021/10/29 01:35:57;;;;;;;4.80;4.25;;;;;;;;;;5037375;28;20172;-45
2021/10/29 01:38:29;;;;;;;5.15;4.65;;;;;;;;;;5037180;28;20547;-45
2021/10/29 01:40:55;;;;;;;6.53;4.50;;;;;;;;;;5037103;28;20551;-45
2021/10/29 01:43:21;;;;;;;4.90;4.40;;;;;;;;;;5035859;28;20184;-45
2021/10/29 01:45:47;;;;;;;5.65;4.18;;;;;;;;;;5036622;28;20544;-46
2021/10/29 01:48:14;;;;;;;5.70;4.90;;;;;;;;;;5037098;28;20180;-46
2021/10/29 01:50:40;;;;;;;5.75;4.32;;;;;;;;;;5036699;28;20386;-45
2021/10/29 01:53:06;;;;;;;4.40;4.00;;;;;;;;;;5036774;28;20175;-45
2021/10/29 01:55:32;;;;;;;5.00;4.38;;;;;;;;;;5037018;28;20668;-45
2021/10/29 01:57:59;;;;;;;5.38;4.20;;;;;;;;;;5029263;28;20215;-45
2021/10/29 02:00:25;;;;;;;4.55;4.15;;;;;;;;;;5020551;28;20175;-45
2021/10/29 02:02:51;;;;;;;5.45;4.13;;;;;;;;;;5036301;28;20191;-45
2021/10/29 02:05:17;;;;;;;5.28;4.07;;;;;;;;;;5036811;28;20186;-45
2021/10/29 02:07:43;;;;;;;5.75;4.60;;;;;;;;;;5036333;28;20513;-45
2021/10/29 02:10:09;;;;;;;4.95;4.00;;;;;;;;;;5036173;28;20610;-45
2021/10/29 02:12:36;;;;;;;5.07;4.18;;;;;;;;;;5036058;28;20179;-45
2021/10/29 02:15:03;;;;;;;4.82;4.15;;;;;;;;;;5035938;28;20222;-45
2021/10/29 02:17:30;;;;;;;5.22;4.07;;;;;;;;;;5035750;28;20272;-45
2021/10/29 02:19:56;;;;;;;5.75;4.10;;;;;;;;;;5036120;28;20187;-45
2021/10/29 02:22:22;;;;;;;5.20;3.97;;;;;;;;;;5056201;28;20183;-46
2021/10/29 02:24:48;;;;;;;4.35;3.92;;;;;;;;;;5054755;28;20171;-45
2021/10/29 02:27:13;;;;;;;4.20;3.83;;;;;;;;;;5036550;28;20208;-45
2021/10/29 02:29:39;;;;;;;4.72;4.20;;;;;;;;;;5036485;28;20184;-45
2021/10/29 02:32:06;;;;;;;5.03;4.18;;;;;;;;;;5036333;28;20197;-45
2021/10/29 02:34:32;;;;;;;4.72;4.00;;;;;;;;;;5035207;28;20199;-45
2021/10/29 02:36:58;;;;;;;4.18;3.78;;;;;;;;;;5036376;28;20176;-45
2021/10/29 02:39:24;;;;;;;4.40;4.00;;;;;;;;;;5036210;28;20466;-45
2021/10/29 02:41:50;;;;;;;4.18;3.33;;;;;;;;;;5036176;28;20184;-45
2021/10/29 02:44:16;;;;;;;3.65;3.35;;;;;;;;;;5036047;28;20187;-45
2021/10/29 02:46:42;;;;;;;4.55;4.07;;;;;;;;;;5034135;28;20207;-45
2021/10/29 02:49:08;;;;;;;3.67;3.28;;;;;;;;;;5033373;28;20577;-45
2021/10/29 02:51:34;;;;;;;4.20;3.78;;;;;;;;;;5035647;28;20288;-45
2021/10/29 02:54:01;;;;;;;4.55;3.83;;;;;;;;;;5023894;28;20891;-45
2021/10/29 02:56:27;;;;;;;4.20;3.70;;;;;;;;;;5035747;28;20199;-45
2021/10/29 02:58:53;;;;;;;4.22;3.80;;;;;;;;;;5035995;28;20570;-45
2021/10/29 03:01:19;;;;;;;5.03;3.80;;;;;;;;;;5035690;28;20218;-45
2021/10/29 03:03:45;;;;;;;4.72;3.67;;;;;;;;;;5035296;28;20254;-45
2021/10/29 03:06:11;;;;;;;3.78;3.38;;;;;;;;;;5035779;28;20606;-45
2021/10/29 03:08:37;;;;;;;4.22;3.83;;;;;;;;;;5035131;28;20191;-46
2021/10/29 03:11:03;;;;;;;3.97;3.40;;;;;;;;;;5035086;28;20263;-46
2021/10/29 03:13:30;;;;;;;4.95;3.67;;;;;;;;;;5035688;28;20578;-46
2021/10/29 03:15:55;;;;;;;3.80;3.50;;;;;;;;;;5035707;28;20263;-45
2021/10/29 03:18:21;;;;;;;4.03;3.63;;;;;;;;;;5035730;28;20643;-45
2021/10/29 03:20:48;;;;;;;5.00;3.75;;;;;;;;;;5034599;28;20218;-45
2021/10/29 03:23:16;;;;;;;5.03;3.83;;;;;;;;;;5035134;28;20276;-45
2021/10/29 03:25:43;;;;;;;4.07;3.22;;;;;;;;;;5035493;28;20172;-45
2021/10/29 03:28:09;;;;;;;3.60;3.10;;;;;;;;;;5033205;28;20262;-45
2021/10/29 03:30:35;;;;;;;3.65;3.35;;;;;;;;;;5015536;28;20218;-45
2021/10/29 03:33:01;;;;;;;3.85;3.50;;;;;;;;;;5032128;28;20184;-45
2021/10/29 03:35:27;;;;;;;4.10;3.70;;;;;;;;;;5032945;28;20579;-45
2021/10/29 03:45:21;;;;;;;3.42;3.00;;;;;;;;;;5035129;28;20306;-45
2021/10/29 03:47:56;;;;;;;4.13;3.55;;;;;;;;;;5034480;28;20498;-46
2021/10/29 03:50:26;;;;;;;3.63;3.13;;;;;;;;;;5019408;28;20432;-46
2021/10/29 03:53:01;;;;;;;4.47;3.10;;;;;;;;;;5034725;28;20266;-45
2021/10/29 03:55:34;;;;;;;3.85;3.47;;;;;;;;;;5034464;28;20474;-45
2021/10/29 03:58:00;;;;;;;3.80;3.22;;;;;;;;;;5034715;28;20171;-46
2021/10/29 04:00:29;;;;;;;3.80;3.38;;;;;;;;;;5034482;28;20180;-45
2021/10/29 04:02:59;;;;;;;3.63;3.10;;;;;;;;;;5033993;28;20885;-45
2021/10/29 04:05:26;;;;;;;6.88;3.63;;;;;;;;;;5035040;28;20182;-47
2021/10/29 04:07:52;;;;;;;4.28;3.42;;;;;;;;;;5034899;28;20203;-48
2021/10/29 04:10:24;;;;;;;7.72;3.80;;;;;;;;;;5034628;28;20219;-48
2021/10/29 04:12:50;;;;;;;5.70;4.43;;;;;;;;;;5033922;28;20183;-48
2021/10/29 04:15:16;;;;;;;6.93;4.25;;;;;;;;;;5034493;28;20190;-48
2021/10/29 04:17:42;;;;;;;7.25;3.75;;;;;;;;;;5019540;28;20207;-48
2021/10/29 04:20:08;;;;;;;4.82;3.80;;;;;;;;;;5016392;28;20211;-47
2021/10/29 04:22:34;;;;;;;5.82;3.65;;;;;;;;;;5034112;28;20259;-48
2021/10/29 04:25:00;;;;;;;7.45;3.83;;;;;;;;;;5033994;28;20701;-48
2021/10/29 04:27:31;;;;;;;7.30;4.03;;;;;;;;;;5034506;28;20226;-47
2021/10/29 04:29:57;;;;;;;7.85;3.70;;;;;;;;;;5034281;28;20190;-48
2021/10/29 04:32:23;;;;;;;5.15;3.50;;;;;;;;;;5034250;28;20570;-47
2021/10/29 04:34:49;;;;;;;6.15;3.40;;;;;;;;;;5033985;28;20179;-47
2021/10/29 04:37:15;;;;;;;4.85;3.67;;;;;;;;;;5034338;28;20278;-47
2021/10/29 04:39:41;;;;;;;7.43;3.72;;;;;;;;;;5034448;28;20266;-48
2021/10/29 04:42:07;;;;;;;7.35;3.85;;;;;;;;;;5033334;28;20233;-48
2021/10/29 04:44:33;;;;;;;4.38;3.38;;;;;;;;;;5025873;28;20407;-48
2021/10/29 04:46:59;;;;;;;4.53;3.58;;;;;;;;;;5030617;28;20295;-48
2021/10/29 04:49:25;;;;;;;5.45;3.85;;;;;;;;;;5034505;28;20587;-47
2021/10/29 04:51:51;;;;;;;6.25;3.45;;;;;;;;;;5034185;28;20188;-48
2021/10/29 04:54:17;;;;;;;5.32;3.80;;;;;;;;;;5033828;28;20174;-48
2021/10/29 04:56:43;;;;;;;4.35;3.45;;;;;;;;;;5033827;28;20179;-48
2021/10/29 04:59:12;;;;;;;4.85;3.40;;;;;;;;;;5033184;28;20183;-48
2021/10/29 05:01:38;;;;;;;5.05;3.72;;;;;;;;;;5033439;28;20483;-48
2021/10/29 05:04:04;;;;;;;4.20;3.40;;;;;;;;;;5032924;28;20196;-48
2021/10/29 05:06:30;;;;;;;4.70;3.55;;;;;;;;;;5032585;28;20207;-48
2021/10/29 05:08:56;;;;;;;6.38;3.75;;;;;;;;;;5033027;28;20182;-48
2021/10/29 05:11:22;;;;;;;3.67;3.00;;;;;;;;;;5032976;28;20475;-47
2021/10/29 05:13:48;;;;;;;5.07;3.47;;;;;;;;;;5013892;28;20256;-48
2021/10/29 05:16:14;;;;;;;5.15;3.58;;;;;;;;;;5024625;28;20187;-48
2021/10/29 05:18:40;;;;;;;3.67;3.15;;;;;;;;;;5033185;28;20467;-48
2021/10/29 05:21:06;;;;;;;5.10;3.38;;;;;;;;;;5033646;28;20627;-48
2021/10/29 05:23:32;;;;;;;6.60;3.25;;;;;;;;;;5031333;28;20183;-48
2021/10/29 05:25:58;;;;;;;5.43;3.47;;;;;;;;;;5025698;28;20584;-48
2021/10/29 05:28:24;;;;;;;4.90;3.40;;;;;;;;;;5020687;28;20208;-48
2021/10/29 05:30:50;;;;;;;3.22;2.92;;;;;;;;;;5033444;28;20254;-48
2021/10/29 05:33:16;;;;;;;3.88;3.33;;;;;;;;;;5032860;28;20194;-48
2021/10/29 05:35:42;;;;;;;4.30;3.40;;;;;;;;;;5031145;28;20214;-48
2021/10/29 05:38:08;;;;;;;5.65;3.13;;;;;;;;;;5031391;28;20168;-48
2021/10/29 05:40:34;;;;;;;4.72;3.28;;;;;;;;;;5031657;28;20207;-48
2021/10/29 05:43:00;;;;;;;3.88;3.08;;;;;;;;;;5031512;28;20187;-48
2021/10/29 05:45:26;;;;;;;5.75;3.10;;;;;;;;;;5029397;28;20221;-48
2021/10/29 05:47:52;;;;;;;5.05;3.65;;;;;;;;;;5030521;28;20210;-48
2021/10/29 05:50:19;;;;;;;3.22;2.88;;;;;;;;;;5032783;28;20489;-48
2021/10/29 05:52:46;;;;;;;5.70;3.28;;;;;;;;;;5033615;28;20168;-48
2021/10/29 05:55:13;;;;;;;4.45;3.30;;;;;;;;;;5020215;28;20188;-48
2021/10/29 05:57:44;;;;;;;4.40;3.30;;;;;;;;;;5036849;28;20258;-48
2021/10/29 06:00:11;;;;;;;4.28;3.28;;;;;;;;;;5035869;28;20187;-48
2021/10/29 06:02:37;;;;;;;3.67;3.30;;;;;;;;;;5036568;28;20638;-48
2021/10/29 06:05:03;;;;;;;3.72;3.30;;;;;;;;;;5036205;28;20192;-48
2021/10/29 06:07:30;;;;;;;3.92;2.88;;;;;;;;;;5036326;28;20476;-48
2021/10/29 06:09:56;;;;;;;3.60;2.92;;;;;;;;;;5037068;28;20168;-48
2021/10/29 06:12:22;;;;;;;3.20;2.90;;;;;;;;;;5037035;28;20208;-48
2021/10/29 06:14:49;;;;;;;3.20;2.88;;;;;;;;;;5036265;28;20249;-48
2021/10/29 06:17:18;;;;;;;3.95;3.33;;;;;;;;;;5036890;28;20176;-49
2021/10/29 06:19:44;;;;;;;3.40;3.10;;;;;;;;;;5035929;28;20187;-48
2021/10/29 06:24:37;;;;;;;3.67;3.20;;;;;;;;;;5036317;28;20424;-48
2021/10/29 06:28:08;;;;;;;4.63;2.80;;;;;;;;;;5036170;28;20236;-48
2021/10/29 06:29:49;;;;;;;3.33;3.03;;;;;;;;;;5036255;28;20222;-48
2021/10/29 06:32:15;;;;;;;3.90;3.42;;;;;;;;;;5036513;28;20191;-48
2021/10/29 06:34:42;;;;;;;3.20;2.90;;;;;;;;;;5030859;28;20185;-47
2021/10/29 06:37:15;;;;;;;4.07;3.03;;;;;;;;;;5033902;28;20179;-48
2021/10/29 06:39:41;;;;;;;3.75;3.22;;;;;;;;;;5036385;28;20255;-48
2021/10/29 06:42:11;;;;;;;3.85;3.08;;;;;;;;;;5036442;28;20278;-48
2021/10/29 07:00:27;;;;;;;4.10;3.40;;;;;;;;;;5036190;28;20226;-48
2021/10/29 07:41:36;;;;;;;6.28;3.72;;;;;;;;;;5035257;28;20198;-48
2021/10/29 07:44:11;;;;;;;16.58;4.38;;;;;;;;;;5034988;28;20184;-48
2021/10/29 07:46:37;;;;;;;7.13;4.07;;;;;;;;;;5034893;28;20836;-48
2021/10/29 07:49:06;;;;;;;5.03;3.83;;;;;;;;;;5030429;28;20266;-47
2021/10/29 07:51:32;;;;;;;5.15;3.97;;;;;;;;;;5017874;28;21002;-48
2021/10/29 07:53:58;;;;;;;9.50;4.35;;;;;;;;;;5014864;28;20172;-48
2021/10/29 07:56:24;;;;;;;4.72;3.88;;;;;;;;;;5015378;28;20576;-48
2021/10/29 07:58:50;;;;;;;5.38;3.60;;;;;;;;;;5024393;28;20180;-49
2021/10/29 08:01:16;;;;;;;5.72;3.90;;;;;;;;;;5034582;28;20179;-48
2021/10/29 08:03:42;;;;;;;6.90;3.85;;;;;;;;;;5033629;28;20215;-48
2021/10/29 08:06:08;;;;;;;6.70;4.20;;;;;;;;;;5034465;28;20293;-48
2021/10/29 08:08:34;;;;;;;5.80;3.80;;;;;;;;;;5034871;28;20260;-48
2021/10/29 08:11:00;;;;;;;6.72;3.60;;;;;;;;;;5034802;28;20615;-48
2021/10/29 08:13:26;;;;;;;4.03;3.58;;;;;;;;;;5034481;28;20455;-48
2021/10/29 08:15:58;;;;;;;9.50;3.58;;;;;;;;;;5034413;28;20225;-48
2021/10/29 08:18:24;;;;;;;5.40;3.55;;;;;;;;;;5030557;28;20222;-48
2021/10/29 08:20:50;;;;;;;5.00;3.47;;;;;;;;;;5034423;28;20191;-47
2021/10/29 08:23:16;;;;;;;5.55;4.03;;;;;;;;;;5034331;28;20540;-48
2021/10/29 08:25:42;;;;;;;4.15;3.40;;;;;;;;;;5034233;28;20187;-48
2021/10/29 08:28:09;;;;;;;5.35;4.18;;;;;;;;;;5034198;28;20226;-48
2021/10/29 08:30:35;;;;;;;7.60;3.70;;;;;;;;;;5031492;28;20180;-50
2021/10/29 08:33:01;;;;;;;5.35;3.83;;;;;;;;;;5014189;28;20172;-48
2021/10/29 08:35:27;;;;;;;6.05;3.70;;;;;;;;;;5018236;28;20186;-48
2021/10/29 08:37:53;;;;;;;5.90;3.80;;;;;;;;;;5033463;28;20225;-48
2021/10/29 08:40:25;;;;;;;5.40;3.92;;;;;;;;;;5033378;28;20601;-48
2021/10/29 08:42:51;;;;;;;5.85;3.88;;;;;;;;;;5034213;28;20168;-48
2021/10/29 08:45:18;;;;;;;8.00;3.50;;;;;;;;;;5024994;28;20223;-48
2021/10/29 08:47:45;;;;;;;4.80;3.67;;;;;;;;;;5032117;28;20215;-47
2021/10/29 08:50:12;;;;;;;5.57;3.65;;;;;;;;;;5034592;28;20191;-48
2021/10/29 08:52:39;;;;;;;4.85;3.70;;;;;;;;;;5034550;28;20180;-48
2021/10/29 08:55:08;;;;;;;4.72;3.47;;;;;;;;;;5032763;28;20574;-48
2021/10/29 08:57:34;;;;;;;8.30;4.07;;;;;;;;;;5032350;28;20203;-48
2021/10/29 09:00:00;;;;;;;4.50;3.38;;;;;;;;;;5026775;28;20269;-48
2021/10/29 09:02:29;;;;;;;6.15;3.55;;;;;;;;;;5033965;28;20622;-48
2021/10/29 09:05:04;;;;;;;4.15;3.42;;;;;;;;;;5033943;28;20190;-48
2021/10/29 09:07:39;;;;;;;8.75;4.20;;;;;;;;;;5034155;28;20203;-48
2021/10/29 09:32:38;;;;;;;5.90;3.60;;;;;;;;;;5018142;28;20595;-48
2021/10/29 09:35:07;;;;;;;5.65;3.83;;;;;;;;;;5017541;28;20282;-48
2021/10/29 09:37:37;;;;;;;9.52;3.92;;;;;;;;;;5023917;28;20526;-48
2021/10/29 09:40:10;;;;;;;6.00;4.00;;;;;;;;;;5034080;28;20181;-48
2021/10/29 09:42:38;;;;;;;11.13;4.30;;;;;;;;;;5037336;28;20172;-48
2021/10/29 09:45:14;;;;;;;7.53;4.30;;;;;;;;;;5036789;28;20187;-48
2021/10/29 09:47:45;;;;;;;10.35;4.22;;;;;;;;;;5036702;28;20229;-47
2021/10/29 09:50:23;;;;;;;11.60;4.68;;;;;;;;;;5036709;28;20276;-48
2021/10/29 09:53:02;;;;;;;11.70;4.50;;;;;;;;;;5036893;28;20172;-48
2021/10/29 09:55:48;;;;;;;8.52;4.45;;;;;;;;;;5028769;28;20171;-48
2021/10/29 09:58:15;;;;;;;7.35;4.85;;;;;;;;;;5037654;28;20187;-48
2021/10/29 10:00:42;;;;;;;5.70;4.30;;;;;;;;;;5036562;28;20176;-48
2021/10/29 10:03:09;;;;;;;9.57;4.20;;;;;;;;;;5036686;28;20191;-48
2021/10/29 10:05:35;;;;;;;7.05;4.20;;;;;;;;;;5037257;28;20195;-48
2021/10/29 10:08:02;;;;;;;6.95;5.13;;;;;;;;;;5037274;28;20203;-48
2021/10/29 10:10:29;;;;;;;6.90;5.00;;;;;;;;;;5037166;28;20184;-48
2021/10/29 10:12:57;;;;;;;5.95;4.40;;;;;;;;;;5036707;28;20176;-48
2021/10/29 10:15:23;;;;;;;7.93;4.00;;;;;;;;;;5036879;28;20172;-48
2021/10/29 10:17:52;;;;;;;5.95;4.47;;;;;;;;;;5052648;28;20179;-48
2021/10/29 10:20:19;;;;;;;6.80;4.72;;;;;;;;;;5036853;28;20188;-48
2021/10/29 10:22:47;;;;;;;8.18;4.32;;;;;;;;;;5036437;28;20179;-48
2021/10/29 10:25:29;;;;;;;8.63;4.53;;;;;;;;;;5036411;28;20168;-48
2021/10/29 10:46:48;;;;;;;4.53;4.03;;;;;;;;;;5036099;28;20219;-48
2021/10/29 10:49:18;;;;;;;5.78;3.88;;;;;;;;;;5034864;28;20221;-49
2021/10/29 10:51:49;;;;;;;6.35;3.92;;;;;;;;;;5030347;28;20279;-48
2021/10/29 11:05:25;;;;;;;4.93;4.13;;;;;;;;;;5034904;28;20454;-48
2021/10/29 11:10:40;;;;;;;5.43;3.78;;;;;;;;;;5036027;28;20203;-48
2021/10/29 11:13:07;;;;;;;4.35;3.95;;;;;;;;;;5035685;28;20185;-48
2021/10/29 11:15:33;;;;;;;4.13;3.70;;;;;;;;;;5035212;28;20259;-48
2021/10/29 11:18:04;;;;;;;4.68;3.72;;;;;;;;;;5032439;28;20191;-48
2021/10/29 11:20:40;;;;;;;5.53;3.92;;;;;;;;;;5035716;28;20179;-48
2021/10/29 11:23:09;;;;;;;4.47;3.58;;;;;;;;;;5035169;28;20184;-49
2021/10/29 11:25:48;;;;;;;4.82;3.53;;;;;;;;;;5035386;28;20187;-48
2021/10/29 11:28:15;;;;;;;7.15;4.00;;;;;;;;;;5035156;28;20208;-48
2021/10/29 11:30:41;;;;;;;7.38;4.10;;;;;;;;;;5034757;28;20306;-48
2021/10/29 11:33:08;;;;;;;6.30;4.05;;;;;;;;;;5035092;28;20259;-48
2021/10/29 11:35:34;;;;;;;7.68;3.78;;;;;;;;;;5034644;28;20625;-48
2021/10/29 11:38:00;;;;;;;5.25;3.83;;;;;;;;;;5035745;28;20555;-48
2021/10/29 11:40:27;;;;;;;6.50;3.90;;;;;;;;;;5034811;28;20236;-48
2021/10/29 11:42:56;;;;;;;5.90;4.35;;;;;;;;;;5034115;28;20183;-48
2021/10/29 11:45:36;;;;;;;6.57;4.25;;;;;;;;;;5034799;28;20259;-47
2021/10/29 11:48:03;;;;;;;5.20;3.90;;;;;;;;;;5034804;28;20199;-48
2021/10/29 11:50:29;;;;;;;6.82;3.92;;;;;;;;;;5034843;28;20190;-48
2021/10/29 11:52:56;;;;;;;4.30;3.60;;;;;;;;;;5034384;28;20180;-48
2021/10/29 11:55:37;;;;;;;4.47;3.78;;;;;;;;;;5033129;28;20176;-48
2021/10/29 11:58:13;;;;;;;5.53;4.03;;;;;;;;;;5035309;28;20196;-48
2021/10/29 12:06:14;;;;;;;4.38;3.50;;;;;;;;;;5020023;28;20218;-48
2021/10/29 12:08:40;;;;;;;4.28;3.67;;;;;;;;;;5034171;28;20176;-48
2021/10/29 12:11:08;;;;;;;4.07;3.67;;;;;;;;;;5040264;28;20171;-47
2021/10/29 12:13:36;;;;;;;4.85;3.90;;;;;;;;;;5040482;28;20179;-48
2021/10/29 12:16:13;;;;;;;5.50;3.78;;;;;;;;;;5043813;28;20543;-48
2021/10/29 12:18:44;;;;;;;3.78;3.22;;;;;;;;;;5034908;28;20167;-48
2021/10/29 12:21:18;;;;;;;4.88;3.45;;;;;;;;;;5034490;28;20180;-48
2021/10/29 12:23:47;;;;;;;4.13;3.70;;;;;;;;;;5033347;28;20172;-48
2021/10/29 12:26:17;;;;;;;4.32;3.42;;;;;;;;;;5034109;28;20183;-47
2021/10/29 12:28:44;;;;;;;4.68;3.40;;;;;;;;;;5034563;28;20299;-48
2021/10/29 12:31:30;;;;;;;7.63;3.85;;;;;;;;;;5032191;28;20175;-48
2021/10/29 13:03:39;;;;;;;5.90;3.50;;;;;;;;;;5036853;28;20199;-48
2021/10/29 13:06:08;;;;;;;4.03;3.30;;;;;;;;;;5028950;28;20234;-48
2021/10/29 13:08:39;;;;;;;7.22;3.83;;;;;;;;;;5038397;28;20535;-48
2021/10/29 13:11:05;;;;;;;5.22;3.50;;;;;;;;;;5037769;28;20176;-48
2021/10/29 13:13:39;;;;;;;4.75;3.22;;;;;;;;;;5037264;28;20210;-48
2021/10/29 13:16:09;;;;;;;4.35;3.30;;;;;;;;;;5037907;28;20172;-47
2021/10/29 13:19:06;;;;;;;6.53;3.88;;;;;;;;;;5037497;28;20168;-48
2021/10/29 13:35:06;;;;;;;4.85;3.50;;;;;;;;;;5035769;28;20279;-48
2021/10/29 13:38:22;;;;;;;4.55;3.45;;;;;;;;;;5018003;28;20178;-48
2021/10/29 13:54:12;;;;;;;4.30;3.58;;;;;;;;;;5033989;28;20768;-48
2021/10/29 14:29:28;;;;;;;4.00;3.60;;;;;;;;;;5036717;28;20230;-48
2021/10/29 14:32:03;;;;;;;5.43;3.92;;;;;;;;;;5036719;28;20190;-48
2021/10/29 14:34:42;;;;;;;3.97;3.58;;;;;;;;;;5035858;28;20175;-48
2021/10/29 14:40:00;;;;;;;4.03;3.50;;;;;;;;;;5032725;28;20191;-48
2021/10/29 14:45:07;;;;;;;3.78;3.47;;;;;;;;;;5016420;28;20205;-48
2021/10/29 15:14:57;;;;;;;4.68;4.05;;;;;;;;;;5035455;28;20573;-48
2021/10/29 15:43:35;;;;;;;5.25;4.75;;;;;;;;;;5035125;28;20570;-48
2021/10/29 15:46:38;;;;;;;5.10;4.70;;;;;;;;;;5025189;28;20590;-48
2021/10/29 15:49:00;;;;;;;6.60;4.78;;;;;;;;;;5035157;28;20188;-48
2021/10/29 15:51:26;;;;;;;5.50;5.00;;;;;;;;;;5035354;28;20175;-48
2021/10/29 15:53:52;;;;;;;5.18;4.68;;;;;;;;;;5035065;28;20164;-48
2021/10/29 16:02:31;;;;;;;6.28;5.72;;;;;;;;;;5026655;28;20200;-48
2021/10/29 16:18:28;;;;;;;6.43;5.35;;;;;;;;;;5033588;28;20461;-49
2021/10/29 16:20:54;;;;;;;6.20;5.60;;;;;;;;;;5034614;28;20179;-48
2021/10/29 16:23:26;;;;;;;5.50;5.00;;;;;;;;;;5034151;28;20180;-48
2021/10/29 16:26:12;;;;;;;5.55;5.05;;;;;;;;;;5034538;28;20191;-48
2021/10/29 16:28:40;;;;;;;6.05;5.10;;;;;;;;;;5034470;28;20194;-48
2021/10/29 16:31:08;;;;;;;5.50;5.00;;;;;;;;;;5034375;28;20172;-48
2021/10/29 16:33:35;;;;;;;5.38;4.82;;;;;;;;;;5026883;28;20437;-48
2021/10/29 16:36:01;;;;;;;5.80;5.20;;;;;;;;;;5033758;28;20492;-48
2021/10/29 16:38:28;;;;;;;5.50;5.00;;;;;;;;;;5033731;28;20188;-48
2021/10/29 16:40:54;;;;;;;5.45;4.80;;;;;;;;;;5034184;28;20569;-48
2021/10/29 16:43:22;;;;;;;5.25;4.80;;;;;;;;;;5034296;28;20192;-48
2021/10/29 16:45:48;;;;;;;5.50;5.00;;;;;;;;;;5033735;28;20171;-48
2021/10/29 16:48:15;;;;;;;5.47;4.97;;;;;;;;;;5034280;28;20208;-48
2021/10/29 16:50:42;;;;;;;5.65;5.10;;;;;;;;;;5032895;28;20590;-48
2021/10/29 16:53:08;;;;;;;5.40;4.85;;;;;;;;;;5033658;28;20180;-48
2021/10/29 16:55:36;;;;;;;5.47;5.00;;;;;;;;;;5034058;28;20172;-48
2021/10/29 16:58:02;;;;;;;5.97;5.38;;;;;;;;;;5034364;28;20176;-48
2021/10/29 17:00:28;;;;;;;5.57;5.03;;;;;;;;;;5034280;28;20180;-48
2021/10/29 17:02:54;;;;;;;6.03;5.43;;;;;;;;;;5033337;28;20202;-48
2021/10/29 17:05:20;;;;;;;7.05;6.18;;;;;;;;;;5033891;28;20215;-49
2021/10/29 17:07:46;;;;;;;6.10;5.45;;;;;;;;;;5018169;28;20234;-48
2021/10/29 17:10:15;;;;;;;6.05;5.45;;;;;;;;;;5018092;28;20547;-48
2021/10/29 17:12:42;;;;;;;6.35;5.75;;;;;;;;;;5034163;28;20233;-48
2021/10/29 17:15:13;;;;;;;6.40;5.80;;;;;;;;;;5033705;28;20164;-48
2021/10/29 17:17:39;;;;;;;6.38;5.70;;;;;;;;;;5034375;28;20229;-48
2021/10/29 17:20:06;;;;;;;6.25;5.47;;;;;;;;;;5033714;28;20239;-48
2021/10/29 17:22:32;;;;;;;6.05;5.32;;;;;;;;;;5032241;28;20195;-48
2021/10/29 17:24:58;;;;;;;7.25;6.25;;;;;;;;;;5032854;28;20180;-48
2021/10/29 17:27:24;;;;;;;6.43;5.82;;;;;;;;;;5034160;28;20672;-49
2021/10/29 17:29:50;;;;;;;5.90;5.40;;;;;;;;;;5033829;28;20180;-49
2021/10/29 17:32:16;;;;;;;5.45;4.95;;;;;;;;;;5034150;28;20174;-48
2021/10/29 17:34:44;;;;;;;6.25;5.65;;;;;;;;;;5033125;28;20195;-48
2021/10/29 17:37:10;;;;;;;6.22;5.63;;;;;;;;;;5034087;28;20561;-49
2021/10/29 17:39:36;;;;;;;6.20;5.60;;;;;;;;;;5032385;28;20307;-48
2021/10/29 17:42:03;;;;;;;6.10;5.50;;;;;;;;;;5034101;28;20180;-47
2021/10/29 17:44:31;;;;;;;6.10;5.53;;;;;;;;;;5033426;28;20195;-48
2021/10/29 17:46:58;;;;;;;5.72;5.10;;;;;;;;;;5033571;28;20222;-48
2021/10/29 17:49:24;;;;;;;5.80;5.20;;;;;;;;;;5036137;28;20182;-48
2021/10/29 17:51:50;;;;;;;5.75;5.20;;;;;;;;;;5037015;28;20179;-48
2021/10/29 17:54:16;;;;;;;6.32;5.65;;;;;;;;;;5037045;28;20180;-48
2021/10/29 17:56:42;;;;;;;6.05;5.43;;;;;;;;;;5035484;28;20187;-48
2021/10/29 17:59:08;;;;;;;6.22;5.20;;;;;;;;;;5037188;28;20184;-48
2021/10/29 18:01:34;;;;;;;6.10;5.50;;;;;;;;;;5036626;28;20438;-48
2021/10/29 18:04:01;;;;;;;5.93;5.38;;;;;;;;;;5036730;28;20629;-47
2021/10/29 18:06:27;;;;;;;6.82;5.97;;;;;;;;;;5036907;28;20494;-49
2021/10/29 18:09:02;;;;;;;5.80;5.30;;;;;;;;;;5036914;28;20196;-48
2021/10/29 18:11:29;;;;;;;6.30;5.70;;;;;;;;;;5031758;28;20203;-48
2021/10/29 18:13:54;;;;;;;6.60;6.00;;;;;;;;;;5025537;28;20175;-48
2021/10/29 18:16:20;;;;;;;6.63;6.03;;;;;;;;;;5030969;28;20199;-48
2021/10/29 18:18:46;;;;;;;6.10;5.35;;;;;;;;;;5036622;28;20212;-48
2021/10/29 18:21:13;;;;;;;6.30;5.63;;;;;;;;;;5036221;28;20201;-48
2021/10/29 18:23:38;;;;;;;6.35;5.75;;;;;;;;;;5034912;28;20184;-48
2021/10/29 18:26:04;;;;;;;6.35;5.70;;;;;;;;;;5034326;28;20195;-48
2021/10/29 18:28:30;;;;;;;6.32;5.72;;;;;;;;;;5034220;28;20222;-49
2021/10/29 18:30:56;;;;;;;7.05;6.35;;;;;;;;;;5028906;28;20176;-48
2021/10/29 18:33:22;;;;;;;6.82;5.80;;;;;;;;;;5035641;28;20226;-48
2021/10/29 18:35:49;;;;;;;6.53;5.93;;;;;;;;;;5031297;28;20216;-47
2021/10/29 18:38:15;;;;;;;6.50;5.88;;;;;;;;;;5035537;28;20590;-48
2021/10/29 18:40:41;;;;;;;6.57;5.78;;;;;;;;;;5034150;28;20225;-48
2021/10/29 18:43:07;;;;;;;6.72;6.03;;;;;;;;;;5036448;28;20547;-48
2021/10/29 18:45:34;;;;;;;8.15;6.75;;;;;;;;;;5036466;28;20214;-49
2021/10/29 18:48:01;;;;;;;8.95;5.93;;;;;;;;;;5034279;28;20254;-48
2021/10/29 18:50:26;;;;;;;9.85;6.38;;;;;;;;;;5034976;28;20198;-48
2021/10/29 18:52:52;;;;;;;6.97;5.70;;;;;;;;;;5034220;28;20188;-48
2021/10/29 18:55:18;;;;;;;8.70;6.53;;;;;;;;;;5034946;28;20200;-47
2021/10/29 18:57:45;;;;;;;7.05;6.35;;;;;;;;;;5034058;28;20176;-48
2021/10/29 19:00:14;;;;;;;6.97;6.38;;;;;;;;;;5022555;28;20180;-48
2021/10/29 19:02:40;;;;;;;7.40;6.60;;;;;;;;;;5033160;28;20199;-48
2021/10/29 19:05:06;;;;;;;8.52;6.30;;;;;;;;;;5033661;28;20187;-48
2021/10/29 19:07:33;;;;;;;7.18;6.47;;;;;;;;;;5034167;28;20293;-48
2021/10/29 19:09:59;;;;;;;7.57;6.82;;;;;;;;;;5033767;28;20586;-48
2021/10/29 19:12:25;;;;;;;9.65;7.13;;;;;;;;;;5032070;28;20194;-49
2021/10/29 19:14:51;;;;;;;8.30;6.95;;;;;;;;;;5033574;28;20190;-49
2021/10/29 19:17:19;;;;;;;7.53;6.82;;;;;;;;;;5034073;28;20493;-48
2021/10/29 19:19:45;;;;;;;8.30;7.40;;;;;;;;;;5025135;28;21608;-48
2021/10/29 19:22:11;;;;;;;11.15;6.90;;;;;;;;;;5033462;28;20211;-48
2021/10/29 19:24:37;;;;;;;8.73;7.13;;;;;;;;;;5041505;28;20184;-48
2021/10/29 19:27:03;;;;;;;10.65;7.05;;;;;;;;;;5035405;28;20503;-48
2021/10/29 19:29:29;;;;;;;10.55;6.90;;;;;;;;;;5035065;28;20191;-48
2021/10/29 19:31:56;;;;;;;9.82;7.18;;;;;;;;;;5033057;28;20749;-48
2021/10/29 19:34:27;;;;;;;9.40;6.60;;;;;;;;;;5033160;28;20176;-48
2021/10/29 19:37:13;;;;;;;7.82;6.82;;;;;;;;;;5033774;28;20266;-48
2021/10/29 19:42:08;;;;;;;9.50;7.53;;;;;;;;;;5033248;28;20238;-48